sensor_id;sensor_type;location;lat;lon;timestamp;P1;P2;P0
60816;PMS5003;51921;51.518;-3.188;2022-08-03T00:01:08;3;3;
60816;PMS5003;51921;51.518;-3.188;2022-08-03T00:03:34;4;4;
60816;PMS5003;51921;51.518;-3.188;2022-08-03T00:05:59;3;3;
60816;PMS5003;51921;51.518;-3.188;2022-08-03T00:08:24;2;2;
60816;PMS5003;51921;51.518;-3.188;2022-08-03T00:10:50;4;3;
60816;PMS5003;51921;51.518;-3.188;2022-08-03T00:13:15;4;3;
60816;PMS5003;51921;51.518;-3.188;2022-08-03T00:15:41;4;3;
60816;PMS5003;51921;51.518;-3.188;2022-08-03T00:18:06;5;4;
60816;PMS5003;51921;51.518;-3.188;2022-08-03T00:20:31;2;2;
60816;PMS5003;51921;51.518;-3.188;2022-08-03T00:22:57;4;3;
60816;PMS5003;51921;51.518;-3.188;2022-08-03T00:25:22;5;4;
60816;PMS5003;51921;51.518;-3.188;2022-08-03T00:27:47;3;2;
60816;PMS5003;51921;51.518;-3.188;2022-08-03T00:30:13;4;4;
60816;PMS5003;51921;51.518;-3.188;2022-08-03T00:32:39;6;3;
60816;PMS5003;51921;51.518;-3.188;2022-08-03T00:35:04;3;3;
60816;PMS5003;51921;51.518;-3.188;2022-08-03T00:37:29;3;3;
60816;PMS5003;51921;51.518;-3.188;2022-08-03T00:39:55;3;3;
60816;PMS5003;51921;51.518;-3.188;2022-08-03T00:42:20;4;4;
60816;PMS5003;51921;51.518;-3.188;2022-08-03T00:44:45;3;3;
60816;PMS5003;51921;51.518;-3.188;2022-08-03T00:47:11;4;3;
60816;PMS5003;51921;51.518;-3.188;2022-08-03T00:49:36;0;0;
60816;PMS5003;51921;51.518;-3.188;2022-08-03T00:52:01;2;2;
60816;PMS5003;51921;51.518;-3.188;2022-08-03T00:54:27;1;1;
60816;PMS5003;51921;51.518;-3.188;2022-08-03T00:56:53;3;3;
60816;PMS5003;51921;51.518;-3.188;2022-08-03T00:59:18;2;1;
60816;PMS5003;51921;51.518;-3.188;2022-08-03T01:01:43;1;1;
60816;PMS5003;51921;51.518;-3.188;2022-08-03T01:04:09;1;0;
60816;PMS5003;51921;51.518;-3.188;2022-08-03T01:06:37;1;1;
60816;PMS5003;51921;51.518;-3.188;2022-08-03T01:09:02;0;0;
60816;PMS5003;51921;51.518;-3.188;2022-08-03T01:11:26;1;0;
60816;PMS5003;51921;51.518;-3.188;2022-08-03T01:13:52;0;0;
60816;PMS5003;51921;51.518;-3.188;2022-08-03T01:16:17;0;0;
60816;PMS5003;51921;51.518;-3.188;2022-08-03T01:18:43;0;0;
60816;PMS5003;51921;51.518;-3.188;2022-08-03T01:21:07;0;0;
60816;PMS5003;51921;51.518;-3.188;2022-08-03T01:23:35;0;0;
60816;PMS5003;51921;51.518;-3.188;2022-08-03T01:26:01;0;0;
60816;PMS5003;51921;51.518;-3.188;2022-08-03T01:28:27;0;0;
60816;PMS5003;51921;51.518;-3.188;2022-08-03T01:30:47;0;0;
60816;PMS5003;51921;51.518;-3.188;2022-08-03T01:33:14;0;0;
60816;PMS5003;51921;51.518;-3.188;2022-08-03T01:35:40;1;1;
60816;PMS5003;51921;51.518;-3.188;2022-08-03T01:38:04;0;0;
60816;PMS5003;51921;51.518;-3.188;2022-08-03T01:40:29;0;0;
60816;PMS5003;51921;51.518;-3.188;2022-08-03T01:42:54;0;0;
60816;PMS5003;51921;51.518;-3.188;2022-08-03T01:45:19;0;0;
60816;PMS5003;51921;51.518;-3.188;2022-08-03T01:47:45;0;0;
60816;PMS5003;51921;51.518;-3.188;2022-08-03T01:50:11;0;0;
60816;PMS5003;51921;51.518;-3.188;2022-08-03T01:52:36;0;0;
60816;PMS5003;51921;51.518;-3.188;2022-08-03T01:55:01;0;0;
60816;PMS5003;51921;51.518;-3.188;2022-08-03T01:57:26;0;0;
60816;PMS5003;51921;51.518;-3.188;2022-08-03T01:59:52;0;0;
60816;PMS5003;51921;51.518;-3.188;2022-08-03T02:02:17;0;0;
60816;PMS5003;51921;51.518;-3.188;2022-08-03T02:04:42;0;0;
60816;PMS5003;51921;51.518;-3.188;2022-08-03T02:07:08;0;0;
60816;PMS5003;51921;51.518;-3.188;2022-08-03T02:09:33;0;0;
60816;PMS5003;51921;51.518;-3.188;2022-08-03T02:11:58;0;0;
60816;PMS5003;51921;51.518;-3.188;2022-08-03T02:14:24;0;0;
60816;PMS5003;51921;51.518;-3.188;2022-08-03T02:16:49;1;1;
60816;PMS5003;51921;51.518;-3.188;2022-08-03T02:19:14;0;0;
60816;PMS5003;51921;51.518;-3.188;2022-08-03T02:21:40;0;0;
60816;PMS5003;51921;51.518;-3.188;2022-08-03T02:24:05;0;0;
60816;PMS5003;51921;51.518;-3.188;2022-08-03T02:26:30;2;2;
60816;PMS5003;51921;51.518;-3.188;2022-08-03T02:28:58;1;1;
60816;PMS5003;51921;51.518;-3.188;2022-08-03T02:31:22;1;1;
60816;PMS5003;51921;51.518;-3.188;2022-08-03T02:33:47;1;1;
60816;PMS5003;51921;51.518;-3.188;2022-08-03T02:36:12;1;1;
60816;PMS5003;51921;51.518;-3.188;2022-08-03T02:38:38;1;1;
60816;PMS5003;51921;51.518;-3.188;2022-08-03T02:41:04;1;1;
60816;PMS5003;51921;51.518;-3.188;2022-08-03T02:43:28;1;1;
60816;PMS5003;51921;51.518;-3.188;2022-08-03T02:45:53;1;1;
60816;PMS5003;51921;51.518;-3.188;2022-08-03T02:48:19;1;1;
60816;PMS5003;51921;51.518;-3.188;2022-08-03T02:50:44;1;0;
60816;PMS5003;51921;51.518;-3.188;2022-08-03T02:53:09;1;1;
60816;PMS5003;51921;51.518;-3.188;2022-08-03T02:55:35;2;1;
60816;PMS5003;51921;51.518;-3.188;2022-08-03T02:58:00;2;2;
60816;PMS5003;51921;51.518;-3.188;2022-08-03T03:00:25;1;1;
60816;PMS5003;51921;51.518;-3.188;2022-08-03T03:02:51;2;2;
60816;PMS5003;51921;51.518;-3.188;2022-08-03T03:05:16;2;2;
60816;PMS5003;51921;51.518;-3.188;2022-08-03T03:07:41;0;0;
60816;PMS5003;51921;51.518;-3.188;2022-08-03T03:10:07;1;1;
60816;PMS5003;51921;51.518;-3.188;2022-08-03T03:12:32;1;1;
60816;PMS5003;51921;51.518;-3.188;2022-08-03T03:14:58;1;1;
60816;PMS5003;51921;51.518;-3.188;2022-08-03T03:17:23;2;2;
60816;PMS5003;51921;51.518;-3.188;2022-08-03T03:19:48;2;2;
60816;PMS5003;51921;51.518;-3.188;2022-08-03T03:22:13;2;2;
60816;PMS5003;51921;51.518;-3.188;2022-08-03T03:24:39;2;2;
60816;PMS5003;51921;51.518;-3.188;2022-08-03T03:27:04;1;1;
60816;PMS5003;51921;51.518;-3.188;2022-08-03T03:29:30;1;1;
60816;PMS5003;51921;51.518;-3.188;2022-08-03T03:31:55;2;2;
60816;PMS5003;51921;51.518;-3.188;2022-08-03T03:34:20;4;2;
60816;PMS5003;51921;51.518;-3.188;2022-08-03T03:36:45;2;2;
60816;PMS5003;51921;51.518;-3.188;2022-08-03T03:39:12;1;1;
60816;PMS5003;51921;51.518;-3.188;2022-08-03T03:41:36;1;1;
60816;PMS5003;51921;51.518;-3.188;2022-08-03T03:44:01;2;2;
60816;PMS5003;51921;51.518;-3.188;2022-08-03T03:46:27;1;1;
60816;PMS5003;51921;51.518;-3.188;2022-08-03T03:48:52;1;1;
60816;PMS5003;51921;51.518;-3.188;2022-08-03T03:51:17;2;2;
60816;PMS5003;51921;51.518;-3.188;2022-08-03T03:56:08;1;1;
60816;PMS5003;51921;51.518;-3.188;2022-08-03T03:58:34;1;1;
60816;PMS5003;51921;51.518;-3.188;2022-08-03T04:00:59;0;0;
60816;PMS5003;51921;51.518;-3.188;2022-08-03T04:03:24;0;0;
60816;PMS5003;51921;51.518;-3.188;2022-08-03T04:05:50;2;1;
60816;PMS5003;51921;51.518;-3.188;2022-08-03T04:08:15;0;0;
60816;PMS5003;51921;51.518;-3.188;2022-08-03T04:10:41;1;1;
60816;PMS5003;51921;51.518;-3.188;2022-08-03T04:13:06;0;0;
60816;PMS5003;51921;51.518;-3.188;2022-08-03T04:15:31;1;1;
60816;PMS5003;51921;51.518;-3.188;2022-08-03T04:17:56;1;1;
60816;PMS5003;51921;51.518;-3.188;2022-08-03T04:20:22;2;2;
60816;PMS5003;51921;51.518;-3.188;2022-08-03T04:22:47;2;1;
60816;PMS5003;51921;51.518;-3.188;2022-08-03T04:25:13;2;2;
60816;PMS5003;51921;51.518;-3.188;2022-08-03T04:27:38;0;0;
60816;PMS5003;51921;51.518;-3.188;2022-08-03T04:30:04;1;1;
60816;PMS5003;51921;51.518;-3.188;2022-08-03T04:32:28;3;2;
60816;PMS5003;51921;51.518;-3.188;2022-08-03T04:34:54;1;1;
60816;PMS5003;51921;51.518;-3.188;2022-08-03T04:37:21;1;1;
60816;PMS5003;51921;51.518;-3.188;2022-08-03T04:39:44;1;1;
60816;PMS5003;51921;51.518;-3.188;2022-08-03T04:42:10;2;2;
60816;PMS5003;51921;51.518;-3.188;2022-08-03T04:44:36;3;3;
60816;PMS5003;51921;51.518;-3.188;2022-08-03T04:47:00;2;2;
60816;PMS5003;51921;51.518;-3.188;2022-08-03T04:49:26;3;3;
60816;PMS5003;51921;51.518;-3.188;2022-08-03T04:51:51;2;2;
60816;PMS5003;51921;51.518;-3.188;2022-08-03T04:54:16;2;2;
60816;PMS5003;51921;51.518;-3.188;2022-08-03T04:56:42;0;0;
60816;PMS5003;51921;51.518;-3.188;2022-08-03T04:59:07;2;2;
60816;PMS5003;51921;51.518;-3.188;2022-08-03T05:01:32;1;1;
60816;PMS5003;51921;51.518;-3.188;2022-08-03T05:03:58;0;0;
60816;PMS5003;51921;51.518;-3.188;2022-08-03T05:06:23;1;1;
60816;PMS5003;51921;51.518;-3.188;2022-08-03T05:08:49;2;2;
60816;PMS5003;51921;51.518;-3.188;2022-08-03T05:11:14;1;1;
60816;PMS5003;51921;51.518;-3.188;2022-08-03T05:13:39;1;1;
60816;PMS5003;51921;51.518;-3.188;2022-08-03T05:16:05;0;0;
60816;PMS5003;51921;51.518;-3.188;2022-08-03T05:18:30;0;0;
60816;PMS5003;51921;51.518;-3.188;2022-08-03T05:20:55;0;0;
60816;PMS5003;51921;51.518;-3.188;2022-08-03T05:23:21;1;1;
60816;PMS5003;51921;51.518;-3.188;2022-08-03T05:25:46;1;1;
60816;PMS5003;51921;51.518;-3.188;2022-08-03T05:28:11;1;0;
60816;PMS5003;51921;51.518;-3.188;2022-08-03T05:30:37;0;0;
60816;PMS5003;51921;51.518;-3.188;2022-08-03T05:33:02;1;1;
60816;PMS5003;51921;51.518;-3.188;2022-08-03T05:35:27;0;0;
60816;PMS5003;51921;51.518;-3.188;2022-08-03T05:37:53;1;1;
60816;PMS5003;51921;51.518;-3.188;2022-08-03T05:40:18;1;1;
60816;PMS5003;51921;51.518;-3.188;2022-08-03T05:42:43;0;0;
60816;PMS5003;51921;51.518;-3.188;2022-08-03T05:45:09;0;0;
60816;PMS5003;51921;51.518;-3.188;2022-08-03T05:47:34;1;1;
60816;PMS5003;51921;51.518;-3.188;2022-08-03T05:49:59;1;1;
60816;PMS5003;51921;51.518;-3.188;2022-08-03T05:52:25;0;0;
60816;PMS5003;51921;51.518;-3.188;2022-08-03T05:54:50;0;0;
60816;PMS5003;51921;51.518;-3.188;2022-08-03T05:57:15;0;0;
60816;PMS5003;51921;51.518;-3.188;2022-08-03T05:59:40;0;0;
60816;PMS5003;51921;51.518;-3.188;2022-08-03T06:02:06;0;0;
60816;PMS5003;51921;51.518;-3.188;2022-08-03T06:04:31;0;0;
60816;PMS5003;51921;51.518;-3.188;2022-08-03T06:06:56;0;0;
60816;PMS5003;51921;51.518;-3.188;2022-08-03T06:09:22;2;0;
60816;PMS5003;51921;51.518;-3.188;2022-08-03T06:11:47;0;0;
60816;PMS5003;51921;51.518;-3.188;2022-08-03T06:14:12;0;0;
60816;PMS5003;51921;51.518;-3.188;2022-08-03T06:16:38;0;0;
60816;PMS5003;51921;51.518;-3.188;2022-08-03T06:19:03;0;0;
60816;PMS5003;51921;51.518;-3.188;2022-08-03T06:21:28;0;0;
60816;PMS5003;51921;51.518;-3.188;2022-08-03T06:23:54;1;0;
60816;PMS5003;51921;51.518;-3.188;2022-08-03T06:26:19;3;0;
60816;PMS5003;51921;51.518;-3.188;2022-08-03T06:28:44;0;0;
60816;PMS5003;51921;51.518;-3.188;2022-08-03T06:31:10;0;0;
60816;PMS5003;51921;51.518;-3.188;2022-08-03T06:33:35;1;0;
60816;PMS5003;51921;51.518;-3.188;2022-08-03T06:36:00;0;0;
60816;PMS5003;51921;51.518;-3.188;2022-08-03T06:38:26;0;0;
60816;PMS5003;51921;51.518;-3.188;2022-08-03T06:40:51;1;1;
60816;PMS5003;51921;51.518;-3.188;2022-08-03T06:43:16;0;0;
60816;PMS5003;51921;51.518;-3.188;2022-08-03T06:45:42;0;0;
60816;PMS5003;51921;51.518;-3.188;2022-08-03T06:48:07;0;0;
60816;PMS5003;51921;51.518;-3.188;2022-08-03T06:50:33;0;0;
60816;PMS5003;51921;51.518;-3.188;2022-08-03T06:52:58;0;0;
60816;PMS5003;51921;51.518;-3.188;2022-08-03T06:55:23;0;0;
60816;PMS5003;51921;51.518;-3.188;2022-08-03T06:57:48;0;0;
60816;PMS5003;51921;51.518;-3.188;2022-08-03T07:00:14;0;0;
60816;PMS5003;51921;51.518;-3.188;2022-08-03T07:02:39;0;0;
60816;PMS5003;51921;51.518;-3.188;2022-08-03T07:05:05;0;0;
60816;PMS5003;51921;51.518;-3.188;2022-08-03T07:07:30;0;0;
60816;PMS5003;51921;51.518;-3.188;2022-08-03T07:10:00;0;0;
60816;PMS5003;51921;51.518;-3.188;2022-08-03T07:12:20;0;0;
60816;PMS5003;51921;51.518;-3.188;2022-08-03T07:14:46;0;0;
60816;PMS5003;51921;51.518;-3.188;2022-08-03T07:17:11;0;0;
60816;PMS5003;51921;51.518;-3.188;2022-08-03T07:19:36;1;0;
60816;PMS5003;51921;51.518;-3.188;2022-08-03T07:22:02;0;0;
60816;PMS5003;51921;51.518;-3.188;2022-08-03T07:24:27;2;1;
60816;PMS5003;51921;51.518;-3.188;2022-08-03T07:26:52;1;1;
60816;PMS5003;51921;51.518;-3.188;2022-08-03T07:29:18;1;1;
60816;PMS5003;51921;51.518;-3.188;2022-08-03T07:31:43;2;2;
60816;PMS5003;51921;51.518;-3.188;2022-08-03T07:34:08;3;2;
60816;PMS5003;51921;51.518;-3.188;2022-08-03T07:36:34;3;3;
60816;PMS5003;51921;51.518;-3.188;2022-08-03T07:38:59;6;6;
60816;PMS5003;51921;51.518;-3.188;2022-08-03T07:41:24;6;6;
60816;PMS5003;51921;51.518;-3.188;2022-08-03T07:43:50;6;6;
60816;PMS5003;51921;51.518;-3.188;2022-08-03T07:46:15;6;6;
60816;PMS5003;51921;51.518;-3.188;2022-08-03T07:48:41;6;6;
60816;PMS5003;51921;51.518;-3.188;2022-08-03T07:51:06;8;7;
60816;PMS5003;51921;51.518;-3.188;2022-08-03T07:53:31;6;6;
60816;PMS5003;51921;51.518;-3.188;2022-08-03T07:55:57;6;6;
60816;PMS5003;51921;51.518;-3.188;2022-08-03T07:58:22;9;9;
60816;PMS5003;51921;51.518;-3.188;2022-08-03T08:00:48;9;9;
60816;PMS5003;51921;51.518;-3.188;2022-08-03T08:03:13;8;8;
60816;PMS5003;51921;51.518;-3.188;2022-08-03T08:05:39;7;6;
60816;PMS5003;51921;51.518;-3.188;2022-08-03T08:08:09;7;7;
60816;PMS5003;51921;51.518;-3.188;2022-08-03T08:10:30;6;5;
60816;PMS5003;51921;51.518;-3.188;2022-08-03T08:12:55;5;5;
60816;PMS5003;51921;51.518;-3.188;2022-08-03T08:15:21;8;6;
60816;PMS5003;51921;51.518;-3.188;2022-08-03T08:17:47;8;8;
60816;PMS5003;51921;51.518;-3.188;2022-08-03T08:20:14;7;7;
60816;PMS5003;51921;51.518;-3.188;2022-08-03T08:22:37;6;6;
60816;PMS5003;51921;51.518;-3.188;2022-08-03T08:25:03;5;4;
60816;PMS5003;51921;51.518;-3.188;2022-08-03T08:27:28;4;4;
60816;PMS5003;51921;51.518;-3.188;2022-08-03T08:29:53;5;5;
60816;PMS5003;51921;51.518;-3.188;2022-08-03T08:32:18;5;5;
60816;PMS5003;51921;51.518;-3.188;2022-08-03T08:34:44;5;4;
60816;PMS5003;51921;51.518;-3.188;2022-08-03T08:37:09;5;5;
60816;PMS5003;51921;51.518;-3.188;2022-08-03T08:39:34;8;8;
60816;PMS5003;51921;51.518;-3.188;2022-08-03T08:42:00;6;6;
60816;PMS5003;51921;51.518;-3.188;2022-08-03T08:44:25;9;9;
60816;PMS5003;51921;51.518;-3.188;2022-08-03T08:46:51;8;8;
60816;PMS5003;51921;51.518;-3.188;2022-08-03T08:49:16;10;8;
60816;PMS5003;51921;51.518;-3.188;2022-08-03T08:51:41;10;9;
60816;PMS5003;51921;51.518;-3.188;2022-08-03T08:54:06;8;8;
60816;PMS5003;51921;51.518;-3.188;2022-08-03T08:56:32;10;9;
60816;PMS5003;51921;51.518;-3.188;2022-08-03T08:58:57;10;10;
60816;PMS5003;51921;51.518;-3.188;2022-08-03T09:01:22;9;8;
60816;PMS5003;51921;51.518;-3.188;2022-08-03T09:03:48;7;6;
60816;PMS5003;51921;51.518;-3.188;2022-08-03T09:06:13;6;6;
60816;PMS5003;51921;51.518;-3.188;2022-08-03T09:08:38;9;8;
60816;PMS5003;51921;51.518;-3.188;2022-08-03T09:11:03;8;8;
60816;PMS5003;51921;51.518;-3.188;2022-08-03T09:13:29;7;7;
60816;PMS5003;51921;51.518;-3.188;2022-08-03T09:18:27;8;8;
60816;PMS5003;51921;51.518;-3.188;2022-08-03T09:20:45;6;6;
60816;PMS5003;51921;51.518;-3.188;2022-08-03T09:23:10;9;8;
60816;PMS5003;51921;51.518;-3.188;2022-08-03T09:25:36;7;7;
60816;PMS5003;51921;51.518;-3.188;2022-08-03T09:28:07;7;7;
60816;PMS5003;51921;51.518;-3.188;2022-08-03T09:30:26;8;7;
60816;PMS5003;51921;51.518;-3.188;2022-08-03T09:32:51;7;6;
60816;PMS5003;51921;51.518;-3.188;2022-08-03T09:35:16;6;6;
60816;PMS5003;51921;51.518;-3.188;2022-08-03T09:37:41;7;6;
60816;PMS5003;51921;51.518;-3.188;2022-08-03T09:40:07;5;5;
60816;PMS5003;51921;51.518;-3.188;2022-08-03T09:42:32;6;6;
60816;PMS5003;51921;51.518;-3.188;2022-08-03T09:44:57;7;7;
60816;PMS5003;51921;51.518;-3.188;2022-08-03T09:47:27;5;5;
60816;PMS5003;51921;51.518;-3.188;2022-08-03T09:52:14;6;6;
60816;PMS5003;51921;51.518;-3.188;2022-08-03T09:54:39;5;5;
60816;PMS5003;51921;51.518;-3.188;2022-08-03T09:57:04;6;6;
60816;PMS5003;51921;51.518;-3.188;2022-08-03T09:59:30;7;7;
60816;PMS5003;51921;51.518;-3.188;2022-08-03T10:01:55;5;5;
60816;PMS5003;51921;51.518;-3.188;2022-08-03T10:04:20;4;3;
60816;PMS5003;51921;51.518;-3.188;2022-08-03T10:07:01;7;6;
60816;PMS5003;51921;51.518;-3.188;2022-08-03T10:09:11;5;5;
60816;PMS5003;51921;51.518;-3.188;2022-08-03T10:11:36;5;5;
60816;PMS5003;51921;51.518;-3.188;2022-08-03T10:14:02;4;4;
60816;PMS5003;51921;51.518;-3.188;2022-08-03T10:16:27;5;4;
60816;PMS5003;51921;51.518;-3.188;2022-08-03T10:18:52;6;6;
60816;PMS5003;51921;51.518;-3.188;2022-08-03T10:21:18;4;4;
60816;PMS5003;51921;51.518;-3.188;2022-08-03T10:23:43;4;4;
60816;PMS5003;51921;51.518;-3.188;2022-08-03T10:26:08;6;5;
60816;PMS5003;51921;51.518;-3.188;2022-08-03T10:28:34;5;5;
60816;PMS5003;51921;51.518;-3.188;2022-08-03T10:30:59;2;2;
60816;PMS5003;51921;51.518;-3.188;2022-08-03T10:33:26;4;4;
60816;PMS5003;51921;51.518;-3.188;2022-08-03T10:35:51;5;5;
60816;PMS5003;51921;51.518;-3.188;2022-08-03T10:38:16;5;4;
60816;PMS5003;51921;51.518;-3.188;2022-08-03T10:40:40;5;5;
60816;PMS5003;51921;51.518;-3.188;2022-08-03T10:43:06;6;4;
60816;PMS5003;51921;51.518;-3.188;2022-08-03T10:45:31;3;3;
60816;PMS5003;51921;51.518;-3.188;2022-08-03T10:47:56;4;4;
60816;PMS5003;51921;51.518;-3.188;2022-08-03T10:50:22;6;5;
60816;PMS5003;51921;51.518;-3.188;2022-08-03T10:52:55;5;5;
60816;PMS5003;51921;51.518;-3.188;2022-08-03T10:57:42;4;4;
60816;PMS5003;51921;51.518;-3.188;2022-08-03T11:00:03;4;4;
60816;PMS5003;51921;51.518;-3.188;2022-08-03T11:07:19;2;2;
60816;PMS5003;51921;51.518;-3.188;2022-08-03T11:09:44;5;5;
60816;PMS5003;51921;51.518;-3.188;2022-08-03T11:19:25;4;4;
60816;PMS5003;51921;51.518;-3.188;2022-08-03T11:21:52;3;3;
60816;PMS5003;51921;51.518;-3.188;2022-08-03T11:26:41;9;8;
60816;PMS5003;51921;51.518;-3.188;2022-08-03T11:31:44;6;5;
60816;PMS5003;51921;51.518;-3.188;2022-08-03T11:34:02;4;4;
60816;PMS5003;51921;51.518;-3.188;2022-08-03T11:36:22;5;4;
60816;PMS5003;51921;51.518;-3.188;2022-08-03T11:43:43;4;4;
60816;PMS5003;51921;51.518;-3.188;2022-08-03T11:46:03;4;4;
60816;PMS5003;51921;51.518;-3.188;2022-08-03T11:48:32;6;5;
60816;PMS5003;51921;51.518;-3.188;2022-08-03T11:50:53;5;5;
60816;PMS5003;51921;51.518;-3.188;2022-08-03T11:53:19;3;3;
60816;PMS5003;51921;51.518;-3.188;2022-08-03T11:55:45;5;4;
60816;PMS5003;51921;51.518;-3.188;2022-08-03T11:58:14;5;4;
60816;PMS5003;51921;51.518;-3.188;2022-08-03T12:00:35;5;4;
60816;PMS5003;51921;51.518;-3.188;2022-08-03T12:03:03;7;6;
60816;PMS5003;51921;51.518;-3.188;2022-08-03T12:05:32;3;3;
60816;PMS5003;51921;51.518;-3.188;2022-08-03T12:07:50;4;4;
60816;PMS5003;51921;51.518;-3.188;2022-08-03T12:10:16;6;5;
60816;PMS5003;51921;51.518;-3.188;2022-08-03T12:12:41;6;4;
60816;PMS5003;51921;51.518;-3.188;2022-08-03T12:15:07;3;3;
60816;PMS5003;51921;51.518;-3.188;2022-08-03T12:17:32;3;3;
60816;PMS5003;51921;51.518;-3.188;2022-08-03T12:19:57;5;4;
60816;PMS5003;51921;51.518;-3.188;2022-08-03T12:24:48;3;3;
60816;PMS5003;51921;51.518;-3.188;2022-08-03T12:29:38;3;3;
60816;PMS5003;51921;51.518;-3.188;2022-08-03T12:32:04;4;4;
60816;PMS5003;51921;51.518;-3.188;2022-08-03T12:36:54;4;4;
60816;PMS5003;51921;51.518;-3.188;2022-08-03T12:39:21;5;4;
60816;PMS5003;51921;51.518;-3.188;2022-08-03T12:41:45;2;2;
60816;PMS5003;51921;51.518;-3.188;2022-08-03T12:44:11;5;4;
60816;PMS5003;51921;51.518;-3.188;2022-08-03T12:46:36;4;4;
60816;PMS5003;51921;51.518;-3.188;2022-08-03T12:49:03;2;2;
60816;PMS5003;51921;51.518;-3.188;2022-08-03T12:51:27;4;4;
60816;PMS5003;51921;51.518;-3.188;2022-08-03T12:53:52;3;3;
60816;PMS5003;51921;51.518;-3.188;2022-08-03T12:56:17;3;3;
60816;PMS5003;51921;51.518;-3.188;2022-08-03T12:58:42;5;5;
60816;PMS5003;51921;51.518;-3.188;2022-08-03T13:01:08;3;3;
60816;PMS5003;51921;51.518;-3.188;2022-08-03T13:03:38;3;3;
60816;PMS5003;51921;51.518;-3.188;2022-08-03T13:05:58;2;2;
60816;PMS5003;51921;51.518;-3.188;2022-08-03T13:08:24;3;3;
60816;PMS5003;51921;51.518;-3.188;2022-08-03T13:10:49;5;3;
60816;PMS5003;51921;51.518;-3.188;2022-08-03T13:13:14;2;2;
60816;PMS5003;51921;51.518;-3.188;2022-08-03T13:15:39;4;3;
60816;PMS5003;51921;51.518;-3.188;2022-08-03T13:18:05;3;2;
60816;PMS5003;51921;51.518;-3.188;2022-08-03T13:20:30;3;3;
60816;PMS5003;51921;51.518;-3.188;2022-08-03T13:22:55;3;2;
60816;PMS5003;51921;51.518;-3.188;2022-08-03T13:25:21;3;2;
60816;PMS5003;51921;51.518;-3.188;2022-08-03T13:27:46;4;4;
60816;PMS5003;51921;51.518;-3.188;2022-08-03T13:30:12;3;3;
60816;PMS5003;51921;51.518;-3.188;2022-08-03T13:32:37;4;3;
60816;PMS5003;51921;51.518;-3.188;2022-08-03T13:35:02;4;3;
60816;PMS5003;51921;51.518;-3.188;2022-08-03T13:37:27;4;4;
60816;PMS5003;51921;51.518;-3.188;2022-08-03T13:39:53;3;3;
60816;PMS5003;51921;51.518;-3.188;2022-08-03T13:42:18;5;3;
60816;PMS5003;51921;51.518;-3.188;2022-08-03T13:44:43;2;2;
60816;PMS5003;51921;51.518;-3.188;2022-08-03T13:47:08;4;4;
60816;PMS5003;51921;51.518;-3.188;2022-08-03T13:49:33;4;3;
60816;PMS5003;51921;51.518;-3.188;2022-08-03T13:51:59;5;5;
60816;PMS5003;51921;51.518;-3.188;2022-08-03T13:54:24;5;5;
60816;PMS5003;51921;51.518;-3.188;2022-08-03T13:56:49;3;3;
60816;PMS5003;51921;51.518;-3.188;2022-08-03T13:59:15;5;4;
60816;PMS5003;51921;51.518;-3.188;2022-08-03T14:01:40;2;2;
60816;PMS5003;51921;51.518;-3.188;2022-08-03T14:04:05;2;1;
60816;PMS5003;51921;51.518;-3.188;2022-08-03T14:06:31;1;1;
60816;PMS5003;51921;51.518;-3.188;2022-08-03T14:08:56;4;4;
60816;PMS5003;51921;51.518;-3.188;2022-08-03T14:11:21;3;3;
60816;PMS5003;51921;51.518;-3.188;2022-08-03T14:13:46;3;3;
60816;PMS5003;51921;51.518;-3.188;2022-08-03T14:16:12;4;2;
60816;PMS5003;51921;51.518;-3.188;2022-08-03T14:18:37;2;2;
60816;PMS5003;51921;51.518;-3.188;2022-08-03T14:21:03;4;3;
60816;PMS5003;51921;51.518;-3.188;2022-08-03T14:23:28;3;3;
60816;PMS5003;51921;51.518;-3.188;2022-08-03T14:25:53;3;2;
60816;PMS5003;51921;51.518;-3.188;2022-08-03T14:28:19;2;2;
60816;PMS5003;51921;51.518;-3.188;2022-08-03T14:30:44;4;3;
60816;PMS5003;51921;51.518;-3.188;2022-08-03T14:33:09;2;2;
60816;PMS5003;51921;51.518;-3.188;2022-08-03T14:35:34;4;4;
60816;PMS5003;51921;51.518;-3.188;2022-08-03T14:37:59;4;4;
60816;PMS5003;51921;51.518;-3.188;2022-08-03T14:40:25;5;5;
60816;PMS5003;51921;51.518;-3.188;2022-08-03T14:42:50;3;3;
60816;PMS5003;51921;51.518;-3.188;2022-08-03T14:45:15;3;2;
60816;PMS5003;51921;51.518;-3.188;2022-08-03T14:47:41;3;3;
60816;PMS5003;51921;51.518;-3.188;2022-08-03T14:50:06;5;5;
60816;PMS5003;51921;51.518;-3.188;2022-08-03T14:52:31;4;4;
60816;PMS5003;51921;51.518;-3.188;2022-08-03T14:54:57;6;6;
60816;PMS5003;51921;51.518;-3.188;2022-08-03T14:57:22;4;4;
60816;PMS5003;51921;51.518;-3.188;2022-08-03T14:59:47;6;5;
60816;PMS5003;51921;51.518;-3.188;2022-08-03T15:02:13;4;4;
60816;PMS5003;51921;51.518;-3.188;2022-08-03T15:04:38;3;3;
60816;PMS5003;51921;51.518;-3.188;2022-08-03T15:07:04;5;4;
60816;PMS5003;51921;51.518;-3.188;2022-08-03T15:09:29;4;4;
60816;PMS5003;51921;51.518;-3.188;2022-08-03T15:11:54;5;4;
60816;PMS5003;51921;51.518;-3.188;2022-08-03T15:14:20;5;4;
60816;PMS5003;51921;51.518;-3.188;2022-08-03T15:16:45;4;4;
60816;PMS5003;51921;51.518;-3.188;2022-08-03T15:19:10;4;4;
60816;PMS5003;51921;51.518;-3.188;2022-08-03T15:21:36;6;6;
60816;PMS5003;51921;51.518;-3.188;2022-08-03T15:24:01;5;5;
60816;PMS5003;51921;51.518;-3.188;2022-08-03T15:26:26;6;6;
60816;PMS5003;51921;51.518;-3.188;2022-08-03T15:28:52;6;6;
60816;PMS5003;51921;51.518;-3.188;2022-08-03T15:31:19;5;5;
60816;PMS5003;51921;51.518;-3.188;2022-08-03T15:33:42;6;5;
60816;PMS5003;51921;51.518;-3.188;2022-08-03T15:36:08;6;5;
60816;PMS5003;51921;51.518;-3.188;2022-08-03T15:38:33;4;4;
60816;PMS5003;51921;51.518;-3.188;2022-08-03T15:40:59;2;2;
60816;PMS5003;51921;51.518;-3.188;2022-08-03T15:43:24;3;3;
60816;PMS5003;51921;51.518;-3.188;2022-08-03T15:45:49;3;3;
60816;PMS5003;51921;51.518;-3.188;2022-08-03T15:48:14;5;4;
60816;PMS5003;51921;51.518;-3.188;2022-08-03T15:50:40;4;3;
60816;PMS5003;51921;51.518;-3.188;2022-08-03T15:53:05;3;3;
60816;PMS5003;51921;51.518;-3.188;2022-08-03T15:55:30;5;4;
60816;PMS5003;51921;51.518;-3.188;2022-08-03T15:57:56;3;3;
60816;PMS5003;51921;51.518;-3.188;2022-08-03T16:00:21;3;3;
60816;PMS5003;51921;51.518;-3.188;2022-08-03T16:02:46;2;2;
60816;PMS5003;51921;51.518;-3.188;2022-08-03T16:05:12;2;2;
60816;PMS5003;51921;51.518;-3.188;2022-08-03T16:07:37;3;3;
60816;PMS5003;51921;51.518;-3.188;2022-08-03T16:10:02;3;3;
60816;PMS5003;51921;51.518;-3.188;2022-08-03T16:12:28;3;2;
60816;PMS5003;51921;51.518;-3.188;2022-08-03T16:14:53;2;2;
60816;PMS5003;51921;51.518;-3.188;2022-08-03T16:17:18;3;3;
60816;PMS5003;51921;51.518;-3.188;2022-08-03T16:19:43;4;4;
60816;PMS5003;51921;51.518;-3.188;2022-08-03T16:22:09;3;3;
60816;PMS5003;51921;51.518;-3.188;2022-08-03T16:24:34;3;2;
60816;PMS5003;51921;51.518;-3.188;2022-08-03T16:27:00;4;4;
60816;PMS5003;51921;51.518;-3.188;2022-08-03T16:29:25;3;3;
60816;PMS5003;51921;51.518;-3.188;2022-08-03T16:31:50;2;2;
60816;PMS5003;51921;51.518;-3.188;2022-08-03T16:34:15;3;3;
60816;PMS5003;51921;51.518;-3.188;2022-08-03T16:36:41;3;3;
60816;PMS5003;51921;51.518;-3.188;2022-08-03T16:39:06;4;4;
60816;PMS5003;51921;51.518;-3.188;2022-08-03T16:41:31;3;3;
60816;PMS5003;51921;51.518;-3.188;2022-08-03T16:43:57;3;3;
60816;PMS5003;51921;51.518;-3.188;2022-08-03T16:46:22;3;3;
60816;PMS5003;51921;51.518;-3.188;2022-08-03T16:48:47;2;2;
60816;PMS5003;51921;51.518;-3.188;2022-08-03T16:51:13;4;4;
60816;PMS5003;51921;51.518;-3.188;2022-08-03T16:53:38;2;2;
60816;PMS5003;51921;51.518;-3.188;2022-08-03T16:56:04;4;4;
60816;PMS5003;51921;51.518;-3.188;2022-08-03T16:58:29;3;3;